Time;durP1;ratioP1;P1;durP2;ratioP2;P2;SDS_P1;SDS_P2;PMS_P1;PMS_P2;Temp;Humidity;BMP_temperature;BMP_pressure;BME280_temperature;BME280_humidity;BME280_pressure;Samples;Min_cycle;Max_cycle;Signal;HPM_P1;HPM_P2
2022/02/22 00:01:30;;;;;;;0.50;0.30;;;;;;;4.85;63.72;96675.81;6220087;28;20236;-70
2022/02/22 00:04:36;;;;;;;0.20;0.20;;;;;;;4.86;64.18;96689.72;6224741;28;20224;-71
2022/02/22 00:07:39;;;;;;;0.93;0.37;;;;;;;4.82;65.90;96670.78;6218933;28;20320;-71
2022/02/22 00:10:41;;;;;;;0.87;0.67;;;;;;;4.75;65.66;96688.72;6217208;28;20235;-70
2022/02/22 00:13:43;;;;;;;0.50;0.30;;;;;;;4.70;65.05;96701.28;6225866;28;20695;-71
2022/02/22 00:16:45;;;;;;;0.60;0.20;;;;;;;4.69;65.69;96683.13;6224486;28;20732;-71
2022/02/22 00:19:47;;;;;;;0.30;0.30;;;;;;;4.70;65.63;96687.38;6223988;28;20701;-71
2022/02/22 00:22:49;;;;;;;0.30;0.30;;;;;;;4.71;65.71;96689.03;6224927;28;20223;-70
2022/02/22 00:25:51;;;;;;;0.23;0.23;;;;;;;4.73;66.34;96713.28;6225616;28;20725;-71
2022/02/22 00:28:53;;;;;;;0.40;0.37;;;;;;;4.73;66.05;96695.84;6226145;28;20227;-71
2022/02/22 00:31:56;;;;;;;0.93;0.30;;;;;;;4.71;66.28;96717.78;6218117;28;20326;-70
2022/02/22 00:34:58;;;;;;;1.30;0.40;;;;;;;4.66;66.52;96714.69;6193792;28;20254;-70
2022/02/22 00:38:00;;;;;;;0.20;0.20;;;;;;;4.60;67.17;96712.50;6208812;28;20712;-70
2022/02/22 00:41:02;;;;;;;0.33;0.33;;;;;;;4.61;67.34;96727.22;6217531;28;20414;-70
2022/02/22 00:44:06;;;;;;;0.73;0.37;;;;;;;4.62;66.82;96749.81;6227844;28;20231;-69
2022/02/22 00:47:08;;;;;;;0.37;0.37;;;;;;;4.69;67.10;96736.19;6222676;28;20220;-71
2022/02/22 00:50:11;;;;;;;0.50;0.40;;;;;;;4.72;68.30;96733.34;6206710;28;20228;-70
2022/02/22 00:53:13;;;;;;;0.37;0.20;;;;;;;4.73;67.79;96734.19;6230440;28;20227;-70
2022/02/22 00:56:16;;;;;;;0.57;0.30;;;;;;;4.74;67.87;96741.94;6228422;28;20236;-70
2022/02/22 00:59:18;;;;;;;0.30;0.30;;;;;;;4.72;67.93;96762.09;6229011;28;20274;-69
2022/02/22 01:02:20;;;;;;;0.23;0.23;;;;;;;4.72;68.90;96774.34;6228005;28;20241;-69
2022/02/22 01:05:22;;;;;;;0.60;0.40;;;;;;;4.73;68.93;96776.00;6228874;28;20325;-70
2022/02/22 01:08:24;;;;;;;0.87;0.40;;;;;;;4.72;68.39;96785.63;6221704;28;20315;-72
2022/02/22 01:11:28;;;;;;;0.30;0.20;;;;;;;4.71;68.05;96776.13;6226635;28;20311;-70
2022/02/22 01:14:32;;;;;;;0.47;0.30;;;;;;;4.73;68.33;96792.53;6227331;28;20724;-70
2022/02/22 01:17:34;;;;;;;0.77;0.20;;;;;;;4.73;68.08;96787.31;6228052;28;20734;-71
2022/02/22 01:20:37;;;;;;;0.30;0.30;;;;;;;4.72;68.43;96813.53;6226644;28;20230;-70
2022/02/22 01:23:39;;;;;;;0.60;0.60;;;;;;;4.70;69.35;96821.50;6229050;28;20234;-70
2022/02/22 01:26:41;;;;;;;1.37;0.47;;;;;;;4.58;71.75;96838.06;6229304;28;20234;-71
2022/02/22 01:29:43;;;;;;;1.50;0.57;;;;;;;4.44;73.63;96846.00;6228242;28;20645;-71
2022/02/22 01:32:45;;;;;;;0.73;0.50;;;;;;;4.26;75.08;96873.38;6226102;28;20289;-71
2022/02/22 01:35:47;;;;;;;1.60;0.73;;;;;;;4.05;74.95;96873.06;6218435;28;20232;-71
2022/02/22 01:38:51;;;;;;;0.97;0.40;;;;;;;3.75;76.08;96904.63;6197532;28;20263;-72
2022/02/22 01:41:53;;;;;;;0.90;0.40;;;;;;;3.36;77.20;96889.78;6233709;28;20235;-71
2022/02/22 01:44:55;;;;;;;0.30;0.30;;;;;;;3.20;77.33;96908.16;6218559;28;20290;-71
2022/02/22 01:47:57;;;;;;;0.60;0.60;;;;;;;3.11;78.42;96926.16;6200645;28;20234;-71
2022/02/22 01:50:59;;;;;;;1.97;0.60;;;;;;;3.06;79.82;96920.41;6220486;28;20591;-72
2022/02/22 01:54:01;;;;;;;0.50;0.50;;;;;;;3.06;80.29;96912.59;6227696;28;20715;-71
2022/02/22 01:57:04;;;;;;;1.63;0.70;;;;;;;3.13;79.50;96909.50;6226213;28;20637;-71
2022/02/22 02:00:10;;;;;;;1.63;0.60;;;;;;;3.17;79.94;96915.38;6228059;28;20225;-71
2022/02/22 02:03:16;;;;;;;0.60;0.60;;;;;;;3.16;80.04;96913.69;6228247;28;20226;-72
2022/02/22 02:06:18;;;;;;;1.67;0.70;;;;;;;3.14;80.17;96924.22;6227691;28;20770;-73
2022/02/22 02:09:20;;;;;;;0.60;0.60;;;;;;;3.18;80.40;96927.47;6204416;28;20249;-72
2022/02/22 02:12:22;;;;;;;0.87;0.83;;;;;;;3.26;79.30;96927.81;6225441;28;20257;-72
2022/02/22 02:15:24;;;;;;;1.73;1.10;;;;;;;3.35;78.68;96932.44;6225462;28;20605;-72
2022/02/22 02:18:26;;;;;;;1.00;0.73;;;;;;;3.39;78.66;96938.31;6209734;28;20233;-71
2022/02/22 02:21:30;;;;;;;1.47;0.77;;;;;;;3.42;78.16;96917.25;6226690;28;20235;-71
2022/02/22 02:24:32;;;;;;;2.13;0.83;;;;;;;3.41;78.15;96913.78;6227310;28;20305;-71
2022/02/22 02:27:34;;;;;;;1.60;0.90;;;;;;;3.45;76.92;96923.09;6225482;28;20234;-74
2022/02/22 02:30:36;;;;;;;1.00;0.80;;;;;;;3.48;76.92;96924.69;6224585;28;20242;-72
2022/02/22 02:33:59;;;;;;;1.37;0.80;;;;;;;3.49;76.64;96918.53;6205889;28;20233;-73
2022/02/22 02:37:02;;;;;;;1.40;0.90;;;;;;;3.50;76.81;96923.63;6179405;28;20247;-73
2022/02/22 02:40:07;;;;;;;0.90;0.80;;;;;;;3.45;77.08;96925.72;6226277;28;20266;-73
2022/02/22 02:43:09;;;;;;;1.87;0.70;;;;;;;3.32;77.77;96941.31;6224470;28;20228;-73
2022/02/22 02:46:11;;;;;;;1.27;0.80;;;;;;;3.28;78.30;96942.44;6226492;28;20228;-72
2022/02/22 02:49:15;;;;;;;1.20;1.10;;;;;;;3.33;77.45;96942.13;6226666;28;20233;-73
2022/02/22 02:52:17;;;;;;;1.20;0.90;;;;;;;3.37;77.15;96951.44;6225081;28;20240;-72
2022/02/22 02:55:19;;;;;;;0.70;0.60;;;;;;;3.31;78.32;96960.47;6226516;28;20233;-72
2022/02/22 02:58:21;;;;;;;1.80;1.07;;;;;;;3.23;79.06;96969.72;6224698;28;20220;-74
2022/02/22 03:01:24;;;;;;;0.93;0.73;;;;;;;3.26;77.83;96975.59;6226208;28;20593;-73
2022/02/22 03:04:27;;;;;;;1.33;0.70;;;;;;;3.28;77.94;96986.78;6226536;28;20257;-73
2022/02/22 03:07:29;;;;;;;2.00;1.03;;;;;;;3.29;77.39;96990.22;6201875;28;20234;-72
2022/02/22 03:10:31;;;;;;;1.50;0.77;;;;;;;3.32;77.53;96992.63;6221331;28;20242;-72
2022/02/22 03:13:33;;;;;;;1.77;0.60;;;;;;;3.32;77.53;96992.63;6225050;28;20236;-72
2022/02/22 03:16:36;;;;;;;0.50;0.50;;;;;;;3.29;77.22;96998.03;6208793;28;20240;-72
2022/02/22 03:19:38;;;;;;;1.23;0.80;;;;;;;3.19;78.03;97010.81;6224394;28;20233;-72
2022/02/22 03:22:45;;;;;;;1.07;0.97;;;;;;;3.11;78.36;97004.38;6225206;28;20230;-73
2022/02/22 03:25:48;;;;;;;0.93;0.70;;;;;;;3.15;76.85;97018.91;6226035;28;20224;-72
2022/02/22 03:28:51;;;;;;;0.80;0.80;;;;;;;3.13;77.18;97019.00;6226647;28;20600;-72
2022/02/22 03:31:53;;;;;;;0.57;0.57;;;;;;;3.09;77.30;97024.50;6220480;28;20223;-72
2022/02/22 03:34:55;;;;;;;0.70;0.70;;;;;;;2.97;78.73;97026.06;6216957;28;20316;-73
2022/02/22 03:37:57;;;;;;;1.57;1.03;;;;;;;2.90;78.65;97033.41;6210928;28;20246;-72
2022/02/22 03:41:01;;;;;;;1.10;0.70;;;;;;;2.90;78.38;97038.63;6216254;28;20241;-72
2022/02/22 03:44:04;;;;;;;1.63;0.90;;;;;;;2.89;78.27;97042.19;6224412;28;20310;-71
2022/02/22 03:47:06;;;;;;;0.57;0.50;;;;;;;2.82;78.52;97061.69;6225073;28;20228;-73
2022/02/22 03:50:10;;;;;;;1.40;0.73;;;;;;;2.74;79.04;97065.69;6225968;28;20239;-72
2022/02/22 03:53:16;;;;;;;1.27;0.70;;;;;;;2.63;79.01;97053.28;6224745;28;20378;-72
2022/02/22 03:56:19;;;;;;;0.77;0.70;;;;;;;2.55;79.40;97065.94;6224872;28;20233;-73
2022/02/22 03:59:21;;;;;;;1.97;0.90;;;;;;;2.43;79.47;97074.44;6225823;28;20606;-73
2022/02/22 04:02:23;;;;;;;1.77;0.87;;;;;;;2.25;79.78;97080.69;6224426;28;20241;-72
2022/02/22 04:05:25;;;;;;;1.00;0.80;;;;;;;2.09;80.45;97092.00;6226284;28;20261;-72
2022/02/22 04:08:27;;;;;;;1.40;0.80;;;;;;;2.02;80.62;97097.59;6210220;28;20441;-73
2022/02/22 04:11:29;;;;;;;1.50;0.83;;;;;;;1.99;80.99;97098.63;6215369;28;20281;-72
2022/02/22 04:14:31;;;;;;;1.30;1.07;;;;;;;2.10;80.45;97104.06;6230567;28;20321;-73
2022/02/22 04:17:34;;;;;;;1.00;0.90;;;;;;;2.13;80.10;97101.28;6211821;28;20266;-73
2022/02/22 04:20:36;;;;;;;1.53;0.80;;;;;;;2.08;80.30;97102.47;6228395;28;20641;-72
2022/02/22 04:23:38;;;;;;;1.33;0.63;;;;;;;2.04;80.37;97096.59;6229829;28;20240;-73
2022/02/22 04:26:41;;;;;;;1.63;0.80;;;;;;;2.01;80.30;97091.56;6230452;28;20243;-72
2022/02/22 04:29:43;;;;;;;2.00;0.63;;;;;;;2.06;80.70;97093.91;6230192;28;20652;-73
2022/02/22 04:32:46;;;;;;;1.90;0.70;;;;;;;2.09;80.37;97092.00;6217564;28;20246;-72
2022/02/22 04:35:48;;;;;;;1.73;0.70;;;;;;;2.14;80.77;97086.50;6204420;28;20540;-73
2022/02/22 04:38:50;;;;;;;1.63;0.90;;;;;;;2.26;79.85;97088.44;6216939;28;20265;-72
2022/02/22 04:41:52;;;;;;;0.83;0.80;;;;;;;2.36;79.24;97079.19;6227950;28;20259;-72
2022/02/22 04:44:55;;;;;;;0.90;0.70;;;;;;;2.49;78.15;97081.91;6229203;28;20606;-72
2022/02/22 04:47:57;;;;;;;3.37;1.53;;;;;;;2.54;77.93;97085.91;6213422;28;20642;-73
2022/02/22 04:50:59;;;;;;;1.23;0.60;;;;;;;2.50;77.98;97084.41;6228449;28;20236;-72
2022/02/22 04:54:01;;;;;;;0.90;0.70;;;;;;;2.43;78.50;97077.88;6227720;28;20261;-72
2022/02/22 04:57:05;;;;;;;2.93;0.80;;;;;;;2.40;78.81;97085.03;6227787;28;20582;-72
2022/02/22 05:00:12;;;;;;;0.93;0.80;;;;;;;2.36;78.86;97093.94;6228766;28;20320;-71
2022/02/22 05:03:14;;;;;;;1.13;0.67;;;;;;;2.31;78.97;97094.19;6228468;28;20227;-72
2022/02/22 05:06:17;;;;;;;2.00;0.80;;;;;;;2.36;79.10;97094.78;6228519;28;20347;-72
2022/02/22 05:09:21;;;;;;;1.37;0.90;;;;;;;2.46;77.92;97103.75;6213441;28;20449;-72
2022/02/22 05:12:23;;;;;;;1.33;0.70;;;;;;;2.50;78.02;97102.63;6228995;28;20285;-72
2022/02/22 05:15:25;;;;;;;1.37;0.90;;;;;;;2.58;77.39;97112.63;6227559;28;20713;-73
2022/02/22 05:18:29;;;;;;;2.83;0.90;;;;;;;2.68;76.71;97110.34;6227385;28;20231;-72
2022/02/22 05:21:34;;;;;;;1.70;0.93;;;;;;;2.81;76.63;97111.28;6226742;28;20273;-73
2022/02/22 05:24:36;;;;;;;1.33;0.77;;;;;;;2.89;75.93;97122.97;6227584;28;20649;-73
2022/02/22 05:27:40;;;;;;;1.40;0.80;;;;;;;2.92;76.53;97132.34;6228603;28;20228;-73
2022/02/22 05:30:43;;;;;;;2.33;1.10;;;;;;;2.87;76.31;97132.63;6226958;28;20229;-73
2022/02/22 05:33:54;;;;;;;1.40;0.83;;;;;;;2.87;76.47;97150.88;6218706;28;20225;-69
2022/02/22 05:36:59;;;;;;;2.17;1.00;;;;;;;2.90;75.89;97157.66;6214305;28;20312;-69
2022/02/22 05:40:03;;;;;;;1.70;0.70;;;;;;;2.84;76.25;97164.06;6210387;28;20724;-69
2022/02/22 05:43:06;;;;;;;1.67;0.80;;;;;;;2.81;76.53;97168.59;6228955;28;20220;-69
2022/02/22 05:46:08;;;;;;;1.27;0.67;;;;;;;2.83;76.88;97179.78;6226800;28;20259;-69
2022/02/22 05:49:10;;;;;;;1.20;0.87;;;;;;;2.84;76.81;97177.09;6228117;28;20713;-71
2022/02/22 05:52:13;;;;;;;0.97;0.90;;;;;;;2.89;77.29;97177.69;6225987;28;20702;-69
2022/02/22 05:55:15;;;;;;;2.07;0.83;;;;;;;2.92;77.16;97190.53;6228694;28;20712;-69
2022/02/22 05:58:17;;;;;;;0.90;0.87;;;;;;;3.04;76.44;97198.56;6194882;28;20241;-70
2022/02/22 06:01:19;;;;;;;0.70;0.70;;;;;;;3.12;76.13;97194.56;6213577;28;20603;-69
2022/02/22 06:04:22;;;;;;;3.00;1.00;;;;;;;3.18;75.73;97211.66;6227169;28;20706;-69
2022/02/22 06:07:24;;;;;;;0.60;0.60;;;;;;;3.20;75.45;97205.41;6225907;28;20760;-69
2022/02/22 06:10:28;;;;;;;1.57;1.07;;;;;;;3.26;75.55;97210.25;6227319;28;20229;-69
2022/02/22 06:13:30;;;;;;;1.33;0.80;;;;;;;3.27;75.82;97206.72;6227858;28;20556;-69
2022/02/22 06:16:32;;;;;;;1.63;0.90;;;;;;;3.30;75.46;97216.97;6227575;28;20717;-69
2022/02/22 06:19:34;;;;;;;1.10;1.00;;;;;;;3.32;75.92;97206.44;6225093;28;20244;-68
2022/02/22 06:22:37;;;;;;;1.07;1.00;;;;;;;3.33;76.11;97214.19;6227022;28;20236;-69
2022/02/22 06:25:40;;;;;;;2.13;0.83;;;;;;;3.36;75.72;97210.56;6226694;28;20712;-69
2022/02/22 06:28:42;;;;;;;1.00;0.83;;;;;;;3.38;75.54;97213.09;6225299;28;20826;-69
2022/02/22 06:31:44;;;;;;;1.27;0.90;;;;;;;3.38;75.74;97207.88;6221770;28;20228;-69
2022/02/22 06:34:46;;;;;;;1.83;0.83;;;;;;;3.41;76.01;97233.75;6205368;28;20689;-69
2022/02/22 06:37:53;;;;;;;1.63;0.70;;;;;;;3.44;75.44;97234.41;6216639;28;20250;-69
2022/02/22 06:40:56;;;;;;;1.77;1.03;;;;;;;3.50;74.65;97247.09;6225738;28;20710;-69
2022/02/22 06:44:00;;;;;;;2.53;1.17;;;;;;;3.57;74.68;97248.44;6225665;28;20755;-70
2022/02/22 06:47:03;;;;;;;0.77;0.77;;;;;;;3.64;74.22;97249.72;6224826;28;20245;-69
2022/02/22 06:50:07;;;;;;;1.20;0.80;;;;;;;3.70;74.29;97265.00;6226870;28;20253;-69
2022/02/22 06:53:11;;;;;;;1.00;0.90;;;;;;;3.73;74.86;97261.38;6225834;28;20728;-69
2022/02/22 06:56:14;;;;;;;1.60;0.80;;;;;;;3.76;75.05;97256.00;6226393;28;20235;-69
2022/02/22 06:59:19;;;;;;;1.10;0.90;;;;;;;3.79;73.93;97260.19;6225975;28;20345;-69
2022/02/22 07:02:21;;;;;;;2.73;1.33;;;;;;;3.89;73.68;97267.38;6227281;28;20579;-69
2022/02/22 07:05:23;;;;;;;0.80;0.80;;;;;;;3.98;73.04;97279.03;6226428;28;20680;-69
2022/02/22 07:08:28;;;;;;;1.43;0.80;;;;;;;4.05;73.33;97294.22;6212149;28;20330;-69
2022/02/22 07:11:30;;;;;;;3.70;1.00;;;;;;;4.12;71.26;97304.28;6223244;28;20643;-69
2022/02/22 07:14:32;;;;;;;2.93;0.90;;;;;;;4.15;71.67;97307.56;6225148;28;20579;-69
2022/02/22 07:17:44;;;;;;;2.67;0.77;;;;;;;4.24;71.61;97314.00;6225925;28;20227;-69
2022/02/22 07:20:47;;;;;;;2.20;0.83;;;;;;;4.32;71.44;97312.59;6225462;28;20606;-69
2022/02/22 07:23:49;;;;;;;1.23;1.03;;;;;;;4.46;70.30;97306.53;6208871;28;20633;-69
2022/02/22 07:26:51;;;;;;;1.93;1.00;;;;;;;4.55;70.03;97319.03;6224764;28;20807;-69
2022/02/22 07:29:53;;;;;;;1.60;0.70;;;;;;;4.61;69.05;97323.03;6227806;28;20850;-69
2022/02/22 07:32:58;;;;;;;1.60;0.70;;;;;;;4.60;69.52;97324.78;6212366;28;20227;-69
2022/02/22 07:36:00;;;;;;;1.20;0.70;;;;;;;4.67;68.81;97333.13;6192868;28;20331;-69
2022/02/22 07:39:02;;;;;;;1.93;0.70;;;;;;;4.74;68.24;97329.19;6203904;28;20729;-69
2022/02/22 07:42:04;;;;;;;1.33;0.70;;;;;;;4.76;67.77;97330.78;6220259;28;20604;-71
2022/02/22 07:45:07;;;;;;;2.80;0.73;;;;;;;4.87;68.60;97345.78;6228534;28;20244;-68
2022/02/22 07:48:09;;;;;;;1.43;0.73;;;;;;;4.95;68.79;97348.75;6230900;28;20666;-68
2022/02/22 07:51:16;;;;;;;2.20;0.80;;;;;;;5.04;68.69;97342.09;6235318;28;20216;-70
2022/02/22 07:54:19;;;;;;;1.60;0.90;;;;;;;5.12;68.48;97345.91;6229011;28;20637;-70
2022/02/22 07:57:22;;;;;;;1.30;0.83;;;;;;;4.95;68.36;97350.53;6229152;28;20238;-70
2022/02/22 08:00:25;;;;;;;2.83;1.27;;;;;;;4.74;69.97;97350.94;6229415;28;20305;-70
2022/02/22 08:03:27;;;;;;;1.30;0.90;;;;;;;4.76;70.48;97363.91;6231525;28;20611;-70
2022/02/22 08:06:29;;;;;;;2.67;1.10;;;;;;;4.78;72.23;97364.66;6229038;28;20231;-70
2022/02/22 08:09:30;;;;;;;2.03;1.20;;;;;;;4.67;72.66;97382.78;6207278;28;20223;-70
2022/02/22 08:12:34;;;;;;;1.83;1.00;;;;;;;4.65;72.97;97388.09;6218930;28;20601;-70
2022/02/22 08:15:36;;;;;;;1.80;1.13;;;;;;;4.71;72.60;97397.31;6228158;28;20670;-70
2022/02/22 08:18:38;;;;;;;1.73;1.10;;;;;;;4.82;73.52;97400.97;6229334;28;20737;-70
2022/02/22 08:21:40;;;;;;;2.07;1.10;;;;;;;4.82;73.98;97407.97;6229979;28;20232;-70
2022/02/22 08:24:42;;;;;;;4.73;1.20;;;;;;;4.80;72.76;97412.44;6230361;28;20288;-70
2022/02/22 08:27:45;;;;;;;1.50;0.80;;;;;;;4.75;73.18;97419.72;6228244;28;20240;-70
2022/02/22 08:30:47;;;;;;;2.13;1.13;;;;;;;5.06;72.89;97443.06;6230892;28;20258;-70
2022/02/22 08:33:58;;;;;;;2.17;1.13;;;;;;;5.24;73.27;97430.59;6226521;28;20717;-70
2022/02/22 08:37:01;;;;;;;0.83;0.63;;;;;;;5.44;70.89;97424.94;6225314;28;20232;-70
2022/02/22 08:40:04;;;;;;;0.70;0.70;;;;;;;5.67;69.48;97441.81;6220111;28;20240;-71
2022/02/22 08:43:13;;;;;;;0.70;0.70;;;;;;;5.62;70.93;97446.47;6227885;28;20232;-70
2022/02/22 08:46:16;;;;;;;1.87;0.80;;;;;;;5.80;70.01;97434.81;6229065;28;20238;-70
2022/02/22 08:49:19;;;;;;;2.67;0.87;;;;;;;6.06;68.48;97461.97;6229300;28;20236;-70
2022/02/22 08:52:21;;;;;;;1.83;0.90;;;;;;;6.39;69.09;97455.44;6227927;28;20228;-70
2022/02/22 08:55:23;;;;;;;0.67;0.50;;;;;;;6.75;68.24;97455.56;6229741;28;20223;-70
2022/02/22 08:58:26;;;;;;;1.30;0.60;;;;;;;6.67;67.21;97470.97;6228560;28;20749;-70
2022/02/22 09:01:28;;;;;;;4.03;0.83;;;;;;;6.60;67.49;97474.94;6230537;28;20605;-70
2022/02/22 09:04:30;;;;;;;0.80;0.70;;;;;;;6.25;66.81;97482.56;6228106;28;20798;-68
2022/02/22 09:07:32;;;;;;;3.30;1.07;;;;;;;6.28;66.73;97488.44;6221925;28;20240;-69
2022/02/22 09:10:36;;;;;;;1.10;0.57;;;;;;;6.43;67.50;97483.94;6213146;28;20362;-70
2022/02/22 09:13:39;;;;;;;0.90;0.70;;;;;;;6.52;67.52;97500.84;6211287;28;20757;-69
2022/02/22 09:16:41;;;;;;;1.80;0.90;;;;;;;6.74;66.44;97506.34;6228409;28;20662;-70
2022/02/22 09:19:43;;;;;;;0.80;0.60;;;;;;;6.58;66.35;97501.28;6229372;28;20474;-70
2022/02/22 09:22:46;;;;;;;1.90;0.70;;;;;;;6.91;66.76;97510.41;6229504;28;20285;-70
2022/02/22 09:25:48;;;;;;;1.63;0.80;;;;;;;7.37;65.38;97522.06;6228673;28;20302;-70
2022/02/22 09:28:52;;;;;;;3.13;1.00;;;;;;;7.64;64.64;97524.53;6228355;28;20732;-70
2022/02/22 09:31:54;;;;;;;1.93;0.80;;;;;;;7.84;64.86;97512.59;6221109;28;20344;-70
2022/02/22 09:34:56;;;;;;;1.73;0.70;;;;;;;8.07;64.69;97532.81;6190890;28;20328;-70
2022/02/22 09:37:59;;;;;;;1.60;0.77;;;;;;;7.60;63.48;97527.47;6203188;28;20287;-70
2022/02/22 09:41:01;;;;;;;3.63;0.90;;;;;;;7.01;66.02;97543.78;6209962;28;20553;-70
2022/02/22 09:44:04;;;;;;;1.00;0.90;;;;;;;6.59;66.87;97547.50;6227962;28;20324;-70
2022/02/22 09:47:08;;;;;;;1.27;0.87;;;;;;;6.68;67.79;97547.88;6227887;28;20237;-70
2022/02/22 09:50:12;;;;;;;0.90;0.70;;;;;;;6.81;67.81;97551.34;6226252;28;20224;-70
2022/02/22 09:53:14;;;;;;;2.73;0.77;;;;;;;6.90;68.04;97562.03;6229749;28;20267;-70
2022/02/22 09:56:23;;;;;;;2.07;0.80;;;;;;;7.24;67.25;97570.25;6229491;28;20259;-69
2022/02/22 09:59:26;;;;;;;1.13;0.70;;;;;;;7.31;67.33;97577.59;6225455;28;20591;-70
2022/02/22 10:02:38;;;;;;;2.70;0.77;;;;;;;6.78;68.20;97570.75;6228885;28;20578;-69
2022/02/22 10:05:54;;;;;;;1.43;0.70;;;;;;;6.44;68.71;97587.03;6210063;28;20236;-70
2022/02/22 10:08:57;;;;;;;0.97;0.60;;;;;;;6.34;67.42;97597.25;6218312;28;20232;-70
2022/02/22 10:11:59;;;;;;;1.40;0.60;;;;;;;6.26;67.42;97586.44;6226657;28;20611;-69
2022/02/22 10:15:05;;;;;;;1.73;0.90;;;;;;;6.32;68.29;97595.66;6210214;28;20699;-70
2022/02/22 10:18:08;;;;;;;2.57;0.97;;;;;;;6.65;68.04;97596.94;6227441;28;20216;-70
2022/02/22 10:21:11;;;;;;;1.83;1.00;;;;;;;6.51;66.70;97597.00;6227526;28;20244;-70
2022/02/22 10:24:17;;;;;;;2.73;0.83;;;;;;;6.54;67.83;97624.81;6227816;28;20230;-70
2022/02/22 10:27:20;;;;;;;2.57;1.20;;;;;;;6.03;66.62;97614.09;6225696;28;20394;-70
2022/02/22 10:30:31;;;;;;;4.50;1.07;;;;;;;5.84;68.41;97634.50;6226267;28;20227;-70
2022/02/22 10:33:33;;;;;;;6.87;1.70;;;;;;;5.60;69.58;97656.91;6224854;28;20310;-69
2022/02/22 10:36:56;;;;;;;9.37;2.10;;;;;;;5.02;72.52;97663.00;6151413;28;20686;-68
2022/02/22 10:40:01;;;;;;;3.97;1.30;;;;;;;4.48;72.65;97680.94;6119408;28;20765;-68
2022/02/22 10:43:03;;;;;;;4.07;1.20;;;;;;;3.91;74.08;97685.78;6151696;28;20237;-67
2022/02/22 10:46:08;;;;;;;2.20;0.70;;;;;;;3.84;75.34;97683.59;6151478;28;20242;-67
2022/02/22 10:49:15;;;;;;;2.77;0.87;;;;;;;3.77;75.49;97687.47;6136111;28;20633;-67
2022/02/22 10:52:19;;;;;;;1.30;0.50;;;;;;;3.36;76.46;97681.78;6103942;29;20237;-66
2022/02/22 10:55:23;;;;;;;2.37;0.50;;;;;;;2.94;76.92;97680.44;6199476;28;20230;-65
2022/02/22 10:58:26;;;;;;;1.47;0.50;;;;;;;2.82;78.20;97683.63;6227192;28;20597;-66
2022/02/22 11:01:28;;;;;;;1.47;0.70;;;;;;;2.86;77.49;97693.00;6225867;28;20232;-66
2022/02/22 11:04:31;;;;;;;2.43;0.60;;;;;;;2.80;77.89;97712.38;6225905;28;20826;-67
2022/02/22 11:07:34;;;;;;;0.70;0.40;;;;;;;2.67;77.44;97679.19;6220118;28;20236;-68
2022/02/22 11:10:43;;;;;;;1.63;0.50;;;;;;;2.95;76.64;97682.97;6207799;28;20239;-68
2022/02/22 11:14:04;;;;;;;1.00;0.43;;;;;;;3.48;76.36;97673.34;6226158;28;20231;-68
2022/02/22 11:17:19;;;;;;;1.17;0.57;;;;;;;4.07;76.74;97670.16;6226776;28;20641;-68
2022/02/22 11:20:28;;;;;;;2.67;0.57;;;;;;;4.52;76.66;97666.75;6225814;28;20723;-68
2022/02/22 11:23:30;;;;;;;1.60;0.50;;;;;;;4.92;74.73;97662.72;6226431;28;20329;-68
2022/02/22 11:26:46;;;;;;;3.33;0.90;;;;;;;5.39;74.54;97656.47;6226726;28;20624;-69
2022/02/22 11:29:56;;;;;;;2.00;0.80;;;;;;;5.74;74.25;97664.78;6226845;28;20727;-69
2022/02/22 11:33:15;;;;;;;2.33;1.00;;;;;;;5.73;71.12;97671.81;6209503;28;20305;-69
2022/02/22 11:36:29;;;;;;;7.43;1.40;;;;;;;6.10;70.15;97661.69;6219285;28;20235;-69
2022/02/22 11:39:43;;;;;;;3.33;1.10;;;;;;;6.06;67.69;97649.75;6219023;28;20707;-69
2022/02/22 11:42:47;;;;;;;3.37;1.67;;;;;;;6.01;64.64;97650.03;6224229;28;20239;-69
2022/02/22 11:45:51;;;;;;;2.80;1.40;;;;;;;6.17;67.47;97632.41;6226518;28;20696;-69
2022/02/22 11:49:02;;;;;;;4.70;0.90;;;;;;;6.63;67.53;97655.66;6225494;28;20227;-69
2022/02/22 11:52:39;;;;;;;4.07;1.37;;;;;;;6.95;67.91;97643.06;6224042;28;20612;-69
2022/02/22 11:55:41;;;;;;;8.37;1.40;;;;;;;7.42;65.98;97634.63;6208543;28;20236;-69
2022/02/22 11:58:43;;;;;;;5.17;1.30;;;;;;;7.43;63.61;97606.59;6224309;28;20234;-69
2022/02/22 12:01:50;;;;;;;5.13;1.40;;;;;;;7.63;60.02;97635.78;6224204;28;20309;-69
2022/02/22 12:04:53;;;;;;;4.40;1.43;;;;;;;8.13;60.92;97634.84;6226341;28;20226;-69
2022/02/22 12:08:03;;;;;;;2.57;0.90;;;;;;;8.39;59.21;97648.78;6198763;28;20604;-69
2022/02/22 12:11:14;;;;;;;2.87;1.30;;;;;;;8.16;58.10;97636.44;6201380;28;20321;-68
2022/02/22 12:14:17;;;;;;;3.83;1.10;;;;;;;7.77;58.10;97655.84;6219326;28;20241;-68
2022/02/22 12:17:21;;;;;;;3.00;0.97;;;;;;;7.18;58.06;97645.00;6225017;28;20232;-68
2022/02/22 12:20:26;;;;;;;2.47;0.90;;;;;;;7.99;59.10;97645.50;6225367;28;20234;-68
2022/02/22 12:23:28;;;;;;;2.50;0.97;;;;;;;8.81;55.33;97651.88;6226308;28;20239;-68
2022/02/22 12:26:39;;;;;;;3.87;0.90;;;;;;;8.66;52.89;97668.78;6226753;28;20573;-68
2022/02/22 12:29:41;;;;;;;3.00;1.00;;;;;;;8.63;50.23;97675.13;6223946;28;20238;-68
2022/02/22 12:32:50;;;;;;;2.10;0.97;;;;;;;8.29;52.20;97687.16;6216384;28;20723;-68
2022/02/22 12:35:53;;;;;;;3.10;0.83;;;;;;;8.14;51.29;97685.63;6172055;28;20636;-68
2022/02/22 12:38:58;;;;;;;2.43;0.70;;;;;;;7.85;51.17;97658.78;6194339;28;20222;-68
2022/02/22 12:42:02;;;;;;;1.60;0.90;;;;;;;8.40;49.02;97694.31;6221372;28;20718;-68
2022/02/22 12:45:24;;;;;;;2.23;0.77;;;;;;;8.68;46.90;97685.31;6230705;28;20315;-68
2022/02/22 12:48:28;;;;;;;2.43;0.90;;;;;;;8.55;47.71;97676.63;6230101;28;20235;-68
2022/02/22 12:51:30;;;;;;;2.63;0.90;;;;;;;8.11;50.28;97670.06;6228130;28;20226;-69
2022/02/22 12:54:34;;;;;;;1.73;0.80;;;;;;;7.90;50.35;97661.91;6227814;28;20695;-69
2022/02/22 12:57:36;;;;;;;3.30;0.87;;;;;;;7.57;51.32;97672.97;6227908;28;20237;-69
2022/02/22 13:01:17;;;;;;;1.70;1.30;;;;;;;8.41;50.67;97667.94;6229141;28;20252;-69
2022/02/22 13:04:22;;;;;;;8.30;1.67;;;;;;;9.18;50.16;97674.50;6229375;28;20240;-69
2022/02/22 13:07:26;;;;;;;4.43;1.33;;;;;;;9.52;47.54;97700.94;6225094;28;20234;-69
2022/02/22 13:10:40;;;;;;;5.67;1.47;;;;;;;9.59;47.51;97679.28;6227993;28;20234;-69
2022/02/22 13:13:42;;;;;;;3.53;1.70;;;;;;;9.55;48.20;97695.47;6227726;28;20243;-69
2022/02/22 13:16:55;;;;;;;7.03;2.00;;;;;;;9.68;47.04;97701.50;6227676;28;20230;-68
2022/02/22 13:20:17;;;;;;;3.77;1.40;;;;;;;10.59;44.90;97704.84;6228365;28;20234;-68
2022/02/22 13:23:32;;;;;;;5.43;1.43;;;;;;;11.34;42.96;97704.88;6228886;28;20246;-69
2022/02/22 13:26:55;;;;;;;3.23;1.27;;;;;;;11.05;41.16;97702.00;6226215;28;20734;-69
2022/02/22 13:30:05;;;;;;;4.03;1.13;;;;;;;9.25;45.78;97738.09;6227294;28;20731;-69
2022/02/22 13:33:14;;;;;;;4.17;1.37;;;;;;;8.35;45.33;97710.44;6227873;28;20376;-69
2022/02/22 13:36:16;;;;;;;3.27;1.20;;;;;;;8.04;46.26;97719.59;6222234;28;20614;-69
2022/02/22 13:39:20;;;;;;;2.40;0.80;;;;;;;7.83;45.73;97733.38;6213597;28;20205;-69
2022/02/22 13:42:24;;;;;;;5.17;1.30;;;;;;;7.75;45.98;97726.03;6226205;28;20745;-69
2022/02/22 13:45:30;;;;;;;1.37;0.77;;;;;;;7.70;45.75;97726.31;6227162;28;20236;-68
2022/02/22 13:48:32;;;;;;;5.47;1.10;;;;;;;7.66;47.08;97742.41;6227950;28;20524;-68
2022/02/22 13:51:41;;;;;;;2.93;0.80;;;;;;;7.31;46.26;97729.84;6227812;28;20229;-69
2022/02/22 13:54:48;;;;;;;2.30;1.00;;;;;;;7.08;45.92;97743.66;6228361;28;20259;-68
2022/02/22 13:57:58;;;;;;;4.60;1.47;;;;;;;6.91;46.51;97759.63;6226660;28;20238;-68
2022/02/22 14:01:03;;;;;;;5.23;1.40;;;;;;;6.70;47.32;97747.88;6226018;28;20237;-68
2022/02/22 14:04:06;;;;;;;4.83;1.10;;;;;;;6.54;47.34;97748.88;6227691;28;20227;-68
2022/02/22 14:07:10;;;;;;;2.27;1.20;;;;;;;6.45;49.62;97754.69;6224063;28;20240;-69
2022/02/22 14:10:12;;;;;;;3.63;1.07;;;;;;;6.31;49.48;97762.56;6210239;28;20239;-68
2022/02/22 14:13:17;;;;;;;3.77;1.20;;;;;;;6.23;49.72;97770.06;6226919;28;20687;-68
2022/02/22 14:16:41;;;;;;;2.50;1.00;;;;;;;6.10;52.15;97771.72;6227791;28;20245;-68
2022/02/22 14:19:44;;;;;;;5.37;1.33;;;;;;;5.99;51.65;97776.81;6225940;28;20236;-69
2022/02/22 14:22:47;;;;;;;5.33;1.00;;;;;;;5.90;51.64;97770.31;6178847;28;20744;-68
2022/02/22 14:25:49;;;;;;;6.63;1.23;;;;;;;5.83;52.39;97780.28;6218827;28;20236;-68
2022/02/22 14:28:51;;;;;;;3.00;1.10;;;;;;;5.79;54.07;97783.22;6209531;28;20779;-69
2022/02/22 14:31:53;;;;;;;4.23;1.27;;;;;;;5.77;55.07;97778.06;6221985;28;20223;-69
2022/02/22 15:34:45;;;;;;;4.43;1.07;;;;;;;5.23;57.15;97828.34;4635114;28;20233;-70
2022/02/22 15:37:47;;;;;;;5.57;1.73;;;;;;;5.14;57.16;97804.41;6211736;28;20596;-70